createdAt,value
2019-02-25T00:01:17.998Z,3.69
2019-02-25T00:03:47.274Z,3.68
2019-02-25T00:06:16.640Z,3.66
2019-02-25T00:09:06.142Z,3.64
2019-02-25T00:11:35.563Z,3.61
2019-02-25T00:14:06.972Z,3.57
2019-02-25T00:16:36.528Z,3.54
2019-02-25T00:19:06.135Z,3.53
2019-02-25T00:21:54.569Z,3.51
2019-02-25T00:24:24.300Z,3.49
2019-02-25T00:26:53.743Z,3.43
2019-02-25T00:29:23.343Z,3.40
2019-02-25T00:32:06.688Z,3.35
2019-02-25T00:34:59.523Z,3.30
2019-02-25T00:37:29.343Z,3.27
2019-02-25T00:39:58.882Z,3.26
2019-02-25T00:42:28.384Z,3.28
2019-02-25T00:44:57.973Z,3.29
2019-02-25T00:47:53.125Z,3.30
2019-02-25T00:50:22.841Z,3.31
2019-02-25T00:52:52.362Z,3.31
2019-02-25T00:55:21.943Z,3.30
2019-02-25T00:57:51.708Z,3.29
2019-02-25T01:00:21.528Z,3.26
2019-02-25T01:03:15.777Z,3.26
2019-02-25T01:05:51.763Z,3.25
2019-02-25T01:08:21.375Z,3.22
2019-02-25T01:10:50.834Z,3.21
2019-02-25T01:16:10.296Z,3.16
2019-02-25T01:18:39.791Z,3.14
2019-02-25T01:21:09.222Z,3.15
2019-02-25T01:23:38.676Z,3.14
2019-02-25T01:26:08.072Z,3.12
2019-02-25T01:28:37.505Z,3.09
2019-02-25T01:31:06.961Z,3.08
2019-02-25T01:33:36.415Z,3.04
2019-02-25T01:36:05.844Z,3.08
2019-02-25T01:41:17.898Z,3.10
2019-02-25T01:43:58.344Z,3.11
2019-02-25T01:46:28.054Z,3.10
2019-02-25T01:48:58.994Z,3.07
2019-02-25T01:51:28.461Z,3.06
2019-02-25T01:53:58.031Z,3.03
2019-02-25T01:56:27.587Z,3.00
2019-02-25T01:58:58.674Z,2.97
2019-02-25T02:01:28.207Z,2.92
2019-02-25T02:03:57.801Z,2.86
2019-02-25T02:06:27.431Z,2.86
2019-02-25T02:08:57.313Z,2.78
2019-02-25T02:11:26.883Z,2.78
2019-02-25T02:13:56.491Z,2.75
2019-02-25T02:16:26.024Z,2.73
2019-02-25T02:18:55.686Z,2.70
2019-02-25T02:21:44.176Z,2.61
2019-02-25T02:24:27.845Z,2.61
2019-02-25T02:26:57.382Z,2.62
2019-02-25T02:29:26.966Z,2.57
2019-02-25T02:31:56.359Z,2.53
2019-02-25T02:34:26.076Z,2.56
2019-02-25T02:37:15.763Z,2.55
2019-02-25T02:39:45.294Z,2.55
2019-02-25T02:42:21.157Z,2.55
2019-02-25T02:45:14.309Z,2.47
2019-02-25T02:47:55.410Z,2.47
2019-02-25T02:50:30.658Z,2.44
2019-02-25T02:53:20.130Z,2.41
2019-02-25T02:56:01.027Z,2.41
2019-02-25T03:01:11.555Z,2.29
2019-02-25T03:03:40.982Z,2.31
2019-02-25T03:06:29.558Z,2.22
2019-02-25T03:08:59.021Z,2.22
2019-02-25T03:11:28.440Z,2.10
2019-02-25T03:14:17.079Z,2.05
2019-02-25T03:16:46.484Z,2.05
2019-02-25T03:19:16.462Z,2.09
2019-02-25T03:21:45.898Z,2.06
2019-02-25T03:24:15.611Z,2.08
2019-02-25T03:27:04.096Z,2.21
2019-02-25T03:29:33.586Z,2.21
2019-02-25T03:32:03.042Z,2.23
2019-02-25T03:34:32.453Z,2.22
2019-02-25T03:37:01.854Z,2.23
2019-02-25T03:39:31.294Z,2.24
2019-02-25T03:42:01.040Z,2.24
2019-02-25T03:44:30.534Z,2.26
2019-02-25T03:46:59.930Z,2.24
2019-02-25T03:49:29.444Z,2.20
2019-02-25T03:51:58.835Z,2.24
2019-02-25T03:54:28.262Z,2.22
2019-02-25T03:57:09.614Z,2.14
2019-02-25T03:59:50.498Z,2.15
2019-02-25T04:02:38.967Z,2.15
2019-02-25T04:05:27.429Z,2.10
2019-02-25T04:07:59.260Z,2.10
2019-02-25T04:10:50.003Z,2.07
2019-02-25T04:13:19.795Z,2.01
2019-02-25T04:15:49.358Z,2.01
2019-02-25T04:18:18.888Z,2.06
2019-02-25T04:20:48.664Z,2.05
2019-02-25T04:23:36.116Z,2.06
2019-02-25T04:26:05.653Z,2.07
2019-02-25T04:31:36.202Z,2.10
2019-02-25T04:34:27.362Z,2.20
2019-02-25T04:37:15.864Z,2.20
2019-02-25T04:39:56.664Z,2.29
2019-02-25T04:42:37.469Z,2.32
2019-02-25T04:45:10.780Z,2.32
2019-02-25T04:47:40.254Z,2.34
2019-02-25T04:50:11.826Z,2.41
2019-02-25T04:53:00.336Z,2.47
2019-02-25T04:55:33.751Z,2.47
2019-02-25T04:58:22.153Z,2.59
2019-02-25T05:01:10.628Z,2.67
2019-02-25T05:09:38.212Z,2.77
2019-02-25T05:12:20.263Z,2.77
2019-02-25T05:14:51.520Z,2.75
2019-02-25T05:17:21.131Z,2.81
2019-02-25T05:25:14.364Z,2.88
2019-02-25T05:27:43.878Z,2.86
2019-02-25T05:30:13.332Z,2.88
2019-02-25T05:32:42.723Z,2.88
2019-02-25T05:35:31.503Z,2.88
2019-02-25T05:38:00.960Z,2.90
2019-02-25T05:40:33.722Z,2.89
2019-02-25T05:43:03.183Z,2.91
2019-02-25T05:45:32.599Z,2.91
2019-02-25T05:48:02.009Z,2.91
2019-02-25T05:50:34.496Z,2.90
2019-02-25T05:53:03.884Z,2.89
2019-02-25T05:55:33.390Z,2.89
2019-02-25T05:58:02.797Z,2.89
2019-02-25T06:00:34.787Z,2.88
2019-02-25T06:03:04.264Z,2.88
2019-02-25T06:05:33.691Z,2.88
2019-02-25T06:08:03.087Z,2.86
2019-02-25T06:10:32.626Z,2.90
2019-02-25T06:13:13.409Z,2.88
2019-02-25T06:15:47.179Z,2.90
2019-02-25T06:18:16.689Z,2.90
2019-02-25T06:20:46.108Z,2.89
2019-02-25T06:23:34.437Z,2.92
2019-02-25T06:26:03.932Z,2.92
2019-02-25T06:31:24.893Z,2.93
2019-02-25T06:39:18.631Z,2.93
2019-02-25T06:41:48.101Z,2.92
2019-02-25T06:44:17.543Z,2.94
2019-02-25T06:46:46.970Z,2.96
2019-02-25T06:49:16.529Z,2.98
2019-02-25T06:51:45.939Z,3.00
2019-02-25T06:54:15.324Z,3.05
2019-02-25T06:56:44.761Z,3.06
2019-02-25T06:59:14.240Z,3.09
2019-02-25T07:01:43.673Z,3.11
2019-02-25T07:04:32.364Z,3.13
2019-02-25T07:07:20.662Z,3.15
2019-02-25T07:12:50.406Z,3.19
2019-02-25T07:15:37.377Z,3.22
2019-02-25T07:18:25.855Z,3.26
2019-02-25T07:21:02.151Z,3.30
2019-02-25T07:23:50.802Z,3.31
2019-02-25T07:26:39.095Z,3.34
2019-02-25T07:29:30.099Z,3.36
2019-02-25T07:32:12.479Z,3.38
2019-02-25T07:35:00.801Z,3.40
2019-02-25T07:37:49.109Z,3.44
2019-02-25T07:40:43.693Z,3.47
2019-02-25T07:43:32.121Z,3.57
2019-02-25T07:46:31.861Z,3.64
2019-02-25T07:49:40.187Z,3.71
2019-02-25T07:52:20.378Z,3.80
2019-02-25T07:55:27.839Z,3.90
2019-02-25T07:58:08.859Z,3.90
2019-02-25T08:00:47.490Z,3.93
2019-02-25T08:03:36.001Z,3.99
2019-02-25T08:06:24.411Z,4.05
2019-02-25T08:09:05.141Z,4.09
2019-02-25T08:11:54.262Z,4.21
2019-02-25T08:14:42.747Z,4.24
2019-02-25T08:20:25.227Z,4.22
2019-02-25T08:23:27.965Z,4.35
2019-02-25T08:26:16.426Z,4.43
2019-02-25T08:29:04.752Z,4.52
2019-02-25T08:31:56.702Z,4.54
2019-02-25T08:34:45.385Z,4.56
2019-02-25T08:38:11.653Z,4.56
2019-02-25T08:44:22.319Z,4.64
2019-02-25T08:47:00.394Z,4.73
2019-02-25T08:49:33.229Z,4.81
2019-02-25T08:52:02.658Z,4.91
2019-02-25T08:54:32.133Z,4.97
2019-02-25T08:59:36.989Z,5.20
2019-02-25T09:02:06.539Z,5.33
2019-02-25T09:04:35.951Z,5.38
2019-02-25T09:07:24.332Z,5.42
2019-02-25T09:15:23.328Z,5.49
2019-02-25T09:18:04.147Z,5.44
2019-02-25T09:20:33.672Z,5.38
2019-02-25T09:23:21.977Z,5.37
2019-02-25T09:25:51.491Z,5.38
2019-02-25T09:28:21.081Z,5.41
2019-02-25T09:30:50.512Z,5.38
2019-02-25T09:33:20.121Z,5.40
2019-02-25T09:35:49.520Z,5.42
2019-02-25T09:38:19.027Z,5.48
2019-02-25T09:40:48.641Z,5.57
2019-02-25T09:43:18.042Z,5.62
2019-02-25T09:48:36.082Z,5.60
2019-02-25T09:51:05.542Z,5.67
2019-02-25T09:53:35.004Z,5.62
2019-02-25T09:56:04.458Z,5.62
2019-02-25T09:58:33.870Z,5.61
2019-02-25T10:01:03.262Z,5.62
2019-02-25T10:03:32.887Z,5.65
2019-02-25T10:06:02.277Z,5.66
2019-02-25T10:08:31.708Z,5.71
2019-02-25T10:11:01.142Z,5.75
2019-02-25T10:13:30.551Z,5.84
2019-02-25T10:15:59.924Z,5.92
2019-02-25T10:18:29.868Z,5.98
2019-02-25T10:23:42.928Z,6.12
2019-02-25T10:26:12.496Z,6.29
2019-02-25T10:28:41.972Z,6.41
2019-02-25T10:31:13.086Z,6.55
2019-02-25T10:33:42.889Z,6.68
2019-02-25T10:36:12.353Z,6.80
2019-02-25T10:38:41.729Z,6.84
2019-02-25T10:41:11.457Z,6.89
2019-02-25T10:43:40.904Z,6.94
2019-02-25T10:46:12.925Z,6.99
2019-02-25T10:48:41.548Z,6.91
2019-02-25T10:51:12.001Z,6.86
2019-02-25T10:53:43.169Z,6.84
2019-02-25T10:58:57.629Z,6.92
2019-02-25T11:01:27.650Z,6.96
2019-02-25T11:03:57.391Z,6.93
2019-02-25T11:06:28.985Z,6.95
2019-02-25T11:09:18.118Z,7.02
2019-02-25T11:14:38.453Z,7.33
2019-02-25T11:17:09.614Z,7.34
2019-02-25T11:19:39.190Z,7.29
2019-02-25T11:22:10.403Z,7.30
2019-02-25T11:24:40.648Z,7.34
2019-02-25T11:27:10.340Z,7.41
2019-02-25T11:29:40.529Z,7.49
2019-02-25T11:32:11.280Z,7.58
2019-02-25T11:34:52.839Z,7.62
2019-02-25T11:37:24.763Z,7.56
2019-02-25T11:39:55.314Z,7.55
2019-02-25T11:42:26.053Z,7.58
2019-02-25T11:45:14.588Z,7.64
2019-02-25T11:47:43.999Z,7.68
2019-02-25T11:50:14.509Z,7.75
2019-02-25T11:52:43.989Z,7.81
2019-02-25T11:55:13.576Z,7.88
2019-02-25T11:58:03.419Z,7.95
2019-02-25T12:00:51.899Z,7.98
2019-02-25T12:03:21.450Z,7.97
2019-02-25T12:05:53.350Z,8.01
2019-02-25T12:08:41.636Z,8.07
2019-02-25T12:11:11.113Z,8.14
2019-02-25T12:16:28.889Z,8.23
2019-02-25T12:18:58.387Z,8.23
2019-02-25T12:21:27.910Z,8.22
2019-02-25T12:23:57.392Z,8.22
2019-02-25T12:26:27.163Z,8.27
2019-02-25T12:28:56.723Z,8.33
2019-02-25T12:34:02.721Z,8.43
2019-02-25T12:36:34.551Z,8.42
2019-02-25T12:39:04.423Z,8.38
2019-02-25T12:41:33.991Z,8.44
2019-02-25T12:44:03.706Z,8.43
2019-02-25T12:46:33.138Z,8.47
2019-02-25T12:49:03.046Z,8.55
2019-02-25T12:51:32.477Z,8.66
2019-02-25T12:54:23.903Z,8.75
2019-02-25T12:56:53.410Z,8.83
2019-02-25T13:02:11.278Z,8.94
2019-02-25T13:10:07.030Z,8.90
2019-02-25T13:12:36.608Z,8.90
2019-02-25T13:15:13.358Z,8.91
2019-02-25T13:17:40.216Z,8.90
2019-02-25T13:20:09.885Z,8.87
2019-02-25T13:22:39.390Z,8.83
2019-02-25T13:28:08.204Z,8.83
2019-02-25T13:30:39.379Z,8.82
2019-02-25T13:33:08.852Z,8.89
2019-02-25T13:35:38.257Z,8.89
2019-02-25T13:38:08.270Z,8.83
2019-02-25T13:40:37.707Z,8.76
2019-02-25T13:43:07.129Z,8.70
2019-02-25T13:45:36.647Z,8.70
2019-02-25T13:48:07.505Z,8.63
2019-02-25T13:50:36.988Z,8.57
2019-02-25T13:53:06.533Z,8.58
2019-02-25T13:55:35.957Z,8.55
2019-02-25T13:58:05.650Z,8.48
2019-02-25T14:00:35.274Z,8.43
2019-02-25T14:03:05.042Z,8.34
2019-02-25T14:05:34.525Z,8.26
2019-02-25T14:08:04.533Z,8.15
2019-02-25T14:10:33.928Z,8.07
2019-02-25T14:13:03.508Z,7.98
2019-02-25T14:15:33.111Z,7.94
2019-02-25T14:18:02.666Z,7.85
2019-02-25T14:20:32.182Z,7.75
2019-02-25T14:23:01.705Z,7.68
2019-02-25T14:25:31.102Z,7.60
2019-02-25T14:28:09.129Z,7.57
2019-02-25T14:30:59.141Z,7.55
2019-02-25T14:33:28.878Z,7.52
2019-02-25T14:35:58.530Z,7.44
2019-02-25T14:38:29.996Z,7.45
2019-02-25T14:43:41.757Z,7.44
2019-02-25T14:46:07.770Z,7.45
2019-02-25T14:48:37.816Z,7.45
2019-02-25T14:51:08.793Z,7.49
2019-02-25T14:53:38.498Z,7.46
2019-02-25T14:56:07.880Z,7.49
2019-02-25T14:58:37.861Z,7.50
2019-02-25T15:01:08.207Z,7.53
2019-02-25T15:03:37.721Z,7.48
2019-02-25T15:08:57.500Z,7.49
2019-02-25T15:14:23.048Z,7.57
2019-02-25T15:16:52.556Z,7.59
2019-02-25T15:19:22.238Z,7.62
2019-02-25T15:21:54.331Z,7.63
2019-02-25T15:27:19.569Z,7.69
2019-02-25T15:29:49.749Z,7.72
2019-02-25T15:37:46.681Z,7.70
2019-02-25T15:40:18.585Z,7.64
2019-02-25T15:43:00.582Z,7.57
2019-02-25T15:45:50.646Z,7.53
2019-02-25T15:48:43.419Z,7.43
2019-02-25T15:51:12.845Z,7.36
2019-02-25T15:53:46.183Z,7.25
2019-02-25T15:56:14.116Z,7.19
2019-02-25T15:58:43.609Z,7.14
2019-02-25T16:01:13.109Z,7.08
2019-02-25T16:03:43.089Z,7.05
2019-02-25T16:06:12.692Z,7.02
2019-02-25T16:08:42.093Z,6.98
2019-02-25T16:11:16.326Z,6.93
2019-02-25T16:13:46.142Z,6.90
2019-02-25T16:16:15.716Z,6.82
2019-02-25T16:18:45.075Z,6.79
2019-02-25T16:21:14.581Z,6.77
2019-02-25T16:23:45.359Z,6.77
2019-02-25T16:26:16.063Z,6.78
2019-02-25T16:28:46.498Z,6.78
2019-02-25T16:31:15.933Z,6.80
2019-02-25T16:33:46.996Z,6.81
2019-02-25T16:36:16.696Z,6.84
2019-02-25T16:38:46.066Z,6.88
2019-02-25T16:41:16.108Z,6.90
2019-02-25T16:43:45.628Z,6.93
2019-02-25T16:46:16.204Z,6.98
2019-02-25T16:48:48.273Z,6.99
2019-02-25T16:51:17.891Z,6.98
2019-02-25T16:53:50.520Z,6.96
2019-02-25T16:56:20.336Z,6.96
2019-02-25T16:58:52.637Z,6.94
2019-02-25T17:01:25.908Z,6.91
2019-02-25T17:03:53.871Z,6.91
2019-02-25T17:06:23.327Z,6.91
2019-02-25T17:11:28.491Z,6.95
2019-02-25T17:14:09.083Z,6.95
2019-02-25T17:19:22.129Z,7.00
2019-02-25T17:21:51.938Z,7.04
2019-02-25T17:24:23.933Z,7.05
2019-02-25T17:26:52.565Z,7.06
2019-02-25T17:29:23.124Z,7.09
2019-02-25T17:31:54.775Z,7.07
2019-02-25T17:34:43.802Z,7.08
2019-02-25T17:37:14.839Z,7.09
2019-02-25T17:39:44.479Z,7.11
2019-02-25T17:42:14.035Z,7.14
2019-02-25T17:44:43.765Z,7.19
2019-02-25T17:47:21.583Z,7.22
2019-02-25T17:52:20.789Z,7.28
2019-02-25T17:54:51.392Z,7.33
2019-02-25T17:57:22.548Z,7.35
2019-02-25T17:59:52.825Z,7.34
2019-02-25T18:02:23.348Z,7.34
2019-02-25T18:04:53.263Z,7.34
2019-02-25T18:07:23.995Z,7.34
2019-02-25T18:09:53.684Z,7.33
2019-02-25T18:12:25.438Z,7.31
2019-02-25T18:15:07.344Z,7.26
2019-02-25T18:17:38.913Z,7.20
2019-02-25T18:20:09.578Z,7.14
2019-02-25T18:22:40.690Z,7.10
2019-02-25T18:25:10.423Z,7.09
2019-02-25T18:27:41.376Z,7.07
2019-02-25T18:30:12.300Z,7.04
2019-02-25T18:32:42.021Z,7.05
2019-02-25T18:35:12.256Z,7.03
2019-02-25T18:37:43.529Z,7.03
2019-02-25T18:40:16.366Z,7.01
2019-02-25T18:42:45.916Z,7.00
2019-02-25T18:45:18.522Z,6.97
2019-02-25T18:47:49.265Z,6.95
2019-02-25T18:55:59.742Z,6.86
2019-02-25T18:58:31.037Z,6.84
2019-02-25T19:01:01.049Z,6.78
2019-02-25T19:03:31.215Z,6.73
2019-02-25T19:06:03.827Z,6.70
2019-02-25T19:08:33.421Z,6.66
2019-02-25T19:11:02.863Z,6.60
2019-02-25T19:13:32.329Z,6.54
2019-02-25T19:16:04.121Z,6.49
2019-02-25T19:18:34.431Z,6.44
2019-02-25T19:21:06.138Z,6.38
2019-02-25T19:23:37.726Z,6.35
2019-02-25T19:26:08.117Z,6.30
2019-02-25T19:28:38.404Z,6.28
2019-02-25T19:31:08.816Z,6.24
2019-02-25T19:33:38.574Z,6.22
2019-02-25T19:36:09.769Z,6.21
2019-02-25T19:38:41.899Z,6.17
2019-02-25T19:41:17.643Z,6.17
2019-02-25T19:44:01.618Z,6.12
2019-02-25T19:46:30.079Z,6.13
2019-02-25T19:48:59.628Z,6.13
2019-02-25T19:51:38.115Z,6.12
2019-02-25T19:54:09.831Z,6.09
2019-02-25T19:56:39.017Z,6.05
2019-02-25T19:59:08.728Z,6.03
2019-02-25T20:01:39.392Z,6.03
2019-02-25T20:07:02.260Z,6.02
2019-02-25T20:09:32.277Z,6.02
2019-02-25T20:12:01.983Z,6.03
2019-02-25T20:14:31.907Z,6.04
2019-02-25T20:17:02.670Z,6.08
2019-02-25T20:19:33.750Z,6.09
2019-02-25T20:22:03.145Z,6.12
2019-02-25T20:24:35.123Z,6.13
2019-02-25T20:27:06.719Z,6.15
2019-02-25T20:29:36.551Z,6.16
2019-02-25T20:32:07.228Z,6.16
2019-02-25T20:34:36.714Z,6.17
2019-02-25T20:37:06.088Z,6.16
2019-02-25T20:39:35.904Z,6.15
2019-02-25T20:45:11.696Z,6.14
2019-02-25T20:47:41.083Z,6.13
2019-02-25T20:50:14.741Z,6.11
2019-02-25T20:52:44.679Z,6.09
2019-02-25T20:57:50.583Z,6.07
2019-02-25T21:00:20.379Z,6.04
2019-02-25T21:02:50.093Z,6.03
2019-02-25T21:05:22.149Z,6.02
2019-02-25T21:07:52.816Z,6.00
2019-02-25T21:10:23.163Z,5.97
2019-02-25T21:13:05.670Z,5.96
2019-02-25T21:15:36.378Z,5.96
2019-02-25T21:18:28.830Z,5.93
2019-02-25T21:20:59.939Z,5.93
2019-02-25T21:23:29.444Z,5.93
2019-02-25T21:26:04.296Z,5.91
2019-02-25T21:28:33.714Z,5.90
2019-02-25T21:31:07.132Z,5.90
2019-02-25T21:33:34.416Z,5.91
2019-02-25T21:36:03.811Z,5.89
2019-02-25T21:38:33.250Z,5.89
2019-02-25T21:41:02.653Z,5.86
2019-02-25T21:43:32.058Z,5.85
2019-02-25T21:46:01.794Z,5.84
2019-02-25T21:48:32.297Z,5.83
2019-02-25T21:51:04.749Z,5.83
2019-02-25T21:53:33.684Z,5.83
2019-02-25T21:56:04.859Z,5.83
2019-02-25T21:58:34.271Z,5.80
2019-02-25T22:01:03.677Z,5.80
2019-02-25T22:03:36.948Z,5.80
2019-02-25T22:06:04.938Z,5.80
2019-02-25T22:08:36.263Z,5.79
2019-02-25T22:11:12.196Z,5.80
2019-02-25T22:13:49.176Z,5.80
2019-02-25T22:16:21.859Z,5.79
2019-02-25T22:18:54.196Z,5.77
2019-02-25T22:21:23.659Z,5.74
2019-02-25T22:23:56.152Z,5.69
2019-02-25T22:26:28.459Z,5.71
2019-02-25T22:28:57.968Z,5.71
2019-02-25T22:31:27.405Z,5.73
2019-02-25T22:33:59.782Z,5.74
2019-02-25T22:36:29.261Z,5.76
2019-02-25T22:39:01.879Z,5.77
2019-02-25T22:41:50.939Z,5.77
2019-02-25T22:44:22.048Z,5.78
2019-02-25T22:46:56.423Z,5.79
2019-02-25T22:49:24.624Z,5.80
2019-02-25T22:51:58.103Z,5.82
2019-02-25T22:57:02.225Z,5.80
2019-02-25T22:59:34.988Z,5.78
2019-02-25T23:02:02.916Z,5.74
2019-02-25T23:04:32.350Z,5.72
2019-02-25T23:07:01.783Z,5.73
2019-02-25T23:09:52.130Z,5.72
2019-02-25T23:12:22.377Z,5.72
2019-02-25T23:15:00.976Z,5.71
2019-02-25T23:17:33.073Z,5.72
2019-02-25T23:20:02.772Z,5.71
2019-02-25T23:22:34.500Z,5.71
2019-02-25T23:25:03.982Z,5.72
2019-02-25T23:27:34.496Z,5.71
2019-02-25T23:32:47.485Z,5.70
2019-02-25T23:35:18.381Z,5.68
2019-02-25T23:37:49.617Z,5.69
2019-02-25T23:40:19.415Z,5.69
2019-02-25T23:43:09.568Z,5.69
2019-02-25T23:46:02.181Z,5.67
2019-02-25T23:48:33.726Z,5.67
2019-02-25T23:51:02.556Z,5.66
2019-02-25T23:53:32.933Z,5.66
2019-02-25T23:56:03.163Z,5.67
2019-02-25T23:58:32.575Z,5.68
